sensor_id;sensor_type;location;lat;lon;timestamp;P1;durP1;ratioP1;P2;durP2;ratioP2
19810;SDS011;10065;49.632;8.346;2024-01-30T07:42:03;26.40;;;13.33;;
19810;SDS011;10065;49.632;8.346;2024-01-30T07:44:33;22.90;;;12.97;;
19810;SDS011;10065;49.632;8.346;2024-01-30T07:47:03;26.73;;;13.10;;
19810;SDS011;10065;49.632;8.346;2024-01-30T07:49:32;23.63;;;13.50;;
19810;SDS011;10065;49.632;8.346;2024-01-30T07:52:05;21.83;;;13.20;;
19810;SDS011;10065;49.632;8.346;2024-01-30T07:54:34;26.13;;;14.33;;
19810;SDS011;10065;49.632;8.346;2024-01-30T07:57:11;23.70;;;13.60;;
19810;SDS011;10065;49.632;8.346;2024-01-30T07:59:41;25.13;;;13.37;;
19810;SDS011;10065;49.632;8.346;2024-01-30T08:02:13;22.33;;;13.27;;
19810;SDS011;10065;49.632;8.346;2024-01-30T08:04:46;25.27;;;13.73;;
19810;SDS011;10065;49.632;8.346;2024-01-30T08:07:16;21.17;;;12.80;;
19810;SDS011;10065;49.632;8.346;2024-01-30T08:09:45;23.13;;;13.10;;
19810;SDS011;10065;49.632;8.346;2024-01-30T08:12:14;21.67;;;12.47;;
19810;SDS011;10065;49.632;8.346;2024-01-30T08:14:45;22.77;;;12.40;;
19810;SDS011;10065;49.632;8.346;2024-01-30T08:17:13;21.87;;;12.87;;
19810;SDS011;10065;49.632;8.346;2024-01-30T08:19:41;22.57;;;12.43;;
19810;SDS011;10065;49.632;8.346;2024-01-30T08:22:09;22.20;;;12.53;;
19810;SDS011;10065;49.632;8.346;2024-01-30T08:24:38;19.23;;;11.57;;
19810;SDS011;10065;49.632;8.346;2024-01-30T08:27:07;26.37;;;13.67;;
19810;SDS011;10065;49.632;8.346;2024-01-30T08:29:37;22.63;;;12.80;;
19810;SDS011;10065;49.632;8.346;2024-01-30T08:32:06;24.83;;;14.50;;
19810;SDS011;10065;49.632;8.346;2024-01-30T08:34:35;26.00;;;13.60;;
19810;SDS011;10065;49.632;8.346;2024-01-30T08:37:03;29.70;;;15.43;;
19810;SDS011;10065;49.632;8.346;2024-01-30T08:39:32;23.80;;;15.33;;
19810;SDS011;10065;49.632;8.346;2024-01-30T08:42:00;25.17;;;14.50;;
19810;SDS011;10065;49.632;8.346;2024-01-30T08:44:28;26.13;;;13.67;;
19810;SDS011;10065;49.632;8.346;2024-01-30T08:46:58;27.27;;;15.10;;
19810;SDS011;10065;49.632;8.346;2024-01-30T08:49:26;27.77;;;14.60;;
19810;SDS011;10065;49.632;8.346;2024-01-30T08:51:54;25.80;;;14.23;;
19810;SDS011;10065;49.632;8.346;2024-01-30T08:54:24;22.80;;;13.80;;
19810;SDS011;10065;49.632;8.346;2024-01-30T08:56:52;24.63;;;12.00;;
19810;SDS011;10065;49.632;8.346;2024-01-30T08:59:22;28.83;;;14.83;;
19810;SDS011;10065;49.632;8.346;2024-01-30T09:01:51;23.43;;;12.87;;
19810;SDS011;10065;49.632;8.346;2024-01-30T09:04:38;27.13;;;14.17;;
19810;SDS011;10065;49.632;8.346;2024-01-30T09:07:07;22.60;;;14.23;;
19810;SDS011;10065;49.632;8.346;2024-01-30T09:09:37;22.37;;;12.67;;
19810;SDS011;10065;49.632;8.346;2024-01-30T09:12:07;24.50;;;13.33;;
19810;SDS011;10065;49.632;8.346;2024-01-30T09:14:38;24.57;;;13.20;;
19810;SDS011;10065;49.632;8.346;2024-01-30T09:17:08;22.03;;;13.43;;
19810;SDS011;10065;49.632;8.346;2024-01-30T09:19:39;25.87;;;14.23;;
19810;SDS011;10065;49.632;8.346;2024-01-30T09:22:08;23.57;;;13.90;;
19810;SDS011;10065;49.632;8.346;2024-01-30T09:24:36;23.80;;;13.00;;
19810;SDS011;10065;49.632;8.346;2024-01-30T09:27:04;22.37;;;13.07;;
19810;SDS011;10065;49.632;8.346;2024-01-30T09:29:33;21.73;;;13.57;;
19810;SDS011;10065;49.632;8.346;2024-01-30T09:32:04;25.87;;;13.30;;
19810;SDS011;10065;49.632;8.346;2024-01-30T09:34:36;22.20;;;13.17;;
19810;SDS011;10065;49.632;8.346;2024-01-30T09:37:07;23.77;;;14.30;;
19810;SDS011;10065;49.632;8.346;2024-01-30T09:39:35;23.13;;;12.93;;
19810;SDS011;10065;49.632;8.346;2024-01-30T09:42:05;23.50;;;13.17;;
19810;SDS011;10065;49.632;8.346;2024-01-30T09:44:43;20.87;;;13.03;;
19810;SDS011;10065;49.632;8.346;2024-01-30T09:47:12;20.13;;;13.17;;
19810;SDS011;10065;49.632;8.346;2024-01-30T09:49:43;28.53;;;13.33;;
19810;SDS011;10065;49.632;8.346;2024-01-30T09:52:13;24.00;;;14.07;;
19810;SDS011;10065;49.632;8.346;2024-01-30T09:54:42;23.20;;;14.47;;
19810;SDS011;10065;49.632;8.346;2024-01-30T09:57:12;23.93;;;14.87;;
19810;SDS011;10065;49.632;8.346;2024-01-30T09:59:41;22.13;;;14.43;;
19810;SDS011;10065;49.632;8.346;2024-01-30T10:02:10;24.43;;;14.40;;
19810;SDS011;10065;49.632;8.346;2024-01-30T10:04:38;20.87;;;12.73;;
19810;SDS011;10065;49.632;8.346;2024-01-30T10:07:07;21.73;;;13.90;;
19810;SDS011;10065;49.632;8.346;2024-01-30T10:09:39;23.03;;;13.03;;
19810;SDS011;10065;49.632;8.346;2024-01-30T10:12:07;25.70;;;15.57;;
19810;SDS011;10065;49.632;8.346;2024-01-30T10:14:37;27.57;;;15.83;;
19810;SDS011;10065;49.632;8.346;2024-01-30T10:17:07;25.13;;;15.73;;
19810;SDS011;10065;49.632;8.346;2024-01-30T10:19:47;26.43;;;14.90;;
19810;SDS011;10065;49.632;8.346;2024-01-30T10:22:15;25.47;;;14.37;;
19810;SDS011;10065;49.632;8.346;2024-01-30T10:24:45;25.43;;;15.23;;
19810;SDS011;10065;49.632;8.346;2024-01-30T10:27:13;22.67;;;14.37;;
19810;SDS011;10065;49.632;8.346;2024-01-30T10:29:41;22.77;;;13.60;;
19810;SDS011;10065;49.632;8.346;2024-01-30T10:32:09;24.30;;;13.80;;
19810;SDS011;10065;49.632;8.346;2024-01-30T10:34:37;21.03;;;13.97;;
19810;SDS011;10065;49.632;8.346;2024-01-30T10:37:07;19.23;;;13.23;;
19810;SDS011;10065;49.632;8.346;2024-01-30T10:39:39;22.30;;;13.90;;
19810;SDS011;10065;49.632;8.346;2024-01-30T10:42:10;22.37;;;14.00;;
19810;SDS011;10065;49.632;8.346;2024-01-30T10:44:43;22.03;;;13.80;;
19810;SDS011;10065;49.632;8.346;2024-01-30T10:47:16;21.77;;;14.47;;
19810;SDS011;10065;49.632;8.346;2024-01-30T10:49:49;22.87;;;15.10;;
19810;SDS011;10065;49.632;8.346;2024-01-30T10:52:20;22.70;;;14.37;;
19810;SDS011;10065;49.632;8.346;2024-01-30T10:54:48;22.57;;;14.40;;
19810;SDS011;10065;49.632;8.346;2024-01-30T10:57:19;19.93;;;13.93;;
19810;SDS011;10065;49.632;8.346;2024-01-30T10:59:50;20.23;;;13.60;;
19810;SDS011;10065;49.632;8.346;2024-01-30T11:02:20;21.60;;;13.00;;
19810;SDS011;10065;49.632;8.346;2024-01-30T11:04:54;18.73;;;13.47;;
19810;SDS011;10065;49.632;8.346;2024-01-30T11:07:24;18.70;;;12.77;;
19810;SDS011;10065;49.632;8.346;2024-01-30T11:10:00;23.47;;;14.93;;
19810;SDS011;10065;49.632;8.346;2024-01-30T11:12:32;24.07;;;14.13;;
19810;SDS011;10065;49.632;8.346;2024-01-30T11:15:01;22.60;;;14.33;;
19810;SDS011;10065;49.632;8.346;2024-01-30T11:17:41;21.67;;;13.63;;
19810;SDS011;10065;49.632;8.346;2024-01-30T11:20:11;18.10;;;13.10;;
19810;SDS011;10065;49.632;8.346;2024-01-30T11:22:41;18.70;;;12.80;;
19810;SDS011;10065;49.632;8.346;2024-01-30T11:25:11;20.37;;;13.37;;
19810;SDS011;10065;49.632;8.346;2024-01-30T11:27:42;19.90;;;13.63;;
19810;SDS011;10065;49.632;8.346;2024-01-30T11:30:20;23.43;;;13.50;;
19810;SDS011;10065;49.632;8.346;2024-01-30T11:32:59;26.50;;;16.37;;
19810;SDS011;10065;49.632;8.346;2024-01-30T11:35:29;23.23;;;14.00;;
19810;SDS011;10065;49.632;8.346;2024-01-30T11:37:58;28.83;;;17.03;;
19810;SDS011;10065;49.632;8.346;2024-01-30T11:40:28;26.30;;;14.47;;
19810;SDS011;10065;49.632;8.346;2024-01-30T11:42:59;23.30;;;14.80;;
19810;SDS011;10065;49.632;8.346;2024-01-30T11:45:29;21.53;;;15.03;;
19810;SDS011;10065;49.632;8.346;2024-01-30T11:47:58;26.90;;;14.63;;
19810;SDS011;10065;49.632;8.346;2024-01-30T11:50:30;21.57;;;13.60;;
19810;SDS011;10065;49.632;8.346;2024-01-30T11:52:58;23.10;;;13.70;;
19810;SDS011;10065;49.632;8.346;2024-01-30T11:55:28;19.83;;;12.97;;
19810;SDS011;10065;49.632;8.346;2024-01-30T11:58:02;20.47;;;13.57;;
19810;SDS011;10065;49.632;8.346;2024-01-30T12:00:30;22.87;;;13.87;;
19810;SDS011;10065;49.632;8.346;2024-01-30T12:03:00;25.17;;;14.60;;
19810;SDS011;10065;49.632;8.346;2024-01-30T12:05:30;23.10;;;14.53;;
19810;SDS011;10065;49.632;8.346;2024-01-30T12:07:59;21.33;;;13.47;;
19810;SDS011;10065;49.632;8.346;2024-01-30T12:10:28;22.87;;;12.90;;
19810;SDS011;10065;49.632;8.346;2024-01-30T12:13:03;19.50;;;12.43;;
19810;SDS011;10065;49.632;8.346;2024-01-30T12:15:32;18.70;;;13.27;;
19810;SDS011;10065;49.632;8.346;2024-01-30T12:18:06;20.60;;;12.83;;
19810;SDS011;10065;49.632;8.346;2024-01-30T12:20:35;20.43;;;12.83;;
19810;SDS011;10065;49.632;8.346;2024-01-30T12:23:03;18.13;;;12.57;;
19810;SDS011;10065;49.632;8.346;2024-01-30T12:25:33;20.73;;;13.23;;
19810;SDS011;10065;49.632;8.346;2024-01-30T12:28:01;18.57;;;12.03;;
19810;SDS011;10065;49.632;8.346;2024-01-30T12:30:32;20.73;;;13.23;;
19810;SDS011;10065;49.632;8.346;2024-01-30T12:33:02;21.17;;;13.00;;
19810;SDS011;10065;49.632;8.346;2024-01-30T12:35:32;21.73;;;13.53;;
19810;SDS011;10065;49.632;8.346;2024-01-30T12:38:00;22.23;;;12.03;;
19810;SDS011;10065;49.632;8.346;2024-01-30T12:40:28;17.07;;;11.87;;
19810;SDS011;10065;49.632;8.346;2024-01-30T12:42:56;19.80;;;12.37;;
19810;SDS011;10065;49.632;8.346;2024-01-30T12:45:26;18.20;;;12.70;;
19810;SDS011;10065;49.632;8.346;2024-01-30T12:47:54;19.80;;;13.20;;
19810;SDS011;10065;49.632;8.346;2024-01-30T12:50:23;17.43;;;12.40;;
19810;SDS011;10065;49.632;8.346;2024-01-30T12:52:51;23.93;;;14.00;;
19810;SDS011;10065;49.632;8.346;2024-01-30T12:55:19;21.23;;;14.10;;
19810;SDS011;10065;49.632;8.346;2024-01-30T12:57:49;18.40;;;12.53;;
19810;SDS011;10065;49.632;8.346;2024-01-30T13:00:18;22.53;;;13.20;;
19810;SDS011;10065;49.632;8.346;2024-01-30T13:02:48;19.37;;;12.13;;
19810;SDS011;10065;49.632;8.346;2024-01-30T13:05:16;20.43;;;13.43;;
19810;SDS011;10065;49.632;8.346;2024-01-30T13:07:44;17.33;;;12.97;;
19810;SDS011;10065;49.632;8.346;2024-01-30T13:10:12;21.50;;;13.93;;
19810;SDS011;10065;49.632;8.346;2024-01-30T13:12:41;21.47;;;13.07;;
19810;SDS011;10065;49.632;8.346;2024-01-30T13:15:09;19.87;;;12.60;;
19810;SDS011;10065;49.632;8.346;2024-01-30T13:17:38;21.87;;;13.50;;
19810;SDS011;10065;49.632;8.346;2024-01-30T13:20:08;22.57;;;13.73;;
19810;SDS011;10065;49.632;8.346;2024-01-30T13:22:38;23.57;;;14.07;;
19810;SDS011;10065;49.632;8.346;2024-01-30T13:25:06;21.93;;;13.73;;
19810;SDS011;10065;49.632;8.346;2024-01-30T13:27:35;22.57;;;14.30;;
19810;SDS011;10065;49.632;8.346;2024-01-30T13:30:04;31.87;;;14.60;;
19810;SDS011;10065;49.632;8.346;2024-01-30T13:32:34;21.47;;;13.97;;
19810;SDS011;10065;49.632;8.346;2024-01-30T13:35:02;22.23;;;13.80;;
19810;SDS011;10065;49.632;8.346;2024-01-30T13:37:32;20.73;;;13.63;;
19810;SDS011;10065;49.632;8.346;2024-01-30T13:40:01;19.80;;;12.23;;
19810;SDS011;10065;49.632;8.346;2024-01-30T13:42:33;22.87;;;13.13;;
19810;SDS011;10065;49.632;8.346;2024-01-30T13:45:02;20.43;;;14.40;;
19810;SDS011;10065;49.632;8.346;2024-01-30T13:47:30;22.37;;;14.43;;
19810;SDS011;10065;49.632;8.346;2024-01-30T13:49:58;24.07;;;13.87;;
19810;SDS011;10065;49.632;8.346;2024-01-30T13:52:26;19.80;;;12.87;;
19810;SDS011;10065;49.632;8.346;2024-01-30T13:55:05;21.23;;;12.73;;
19810;SDS011;10065;49.632;8.346;2024-01-30T13:57:33;23.20;;;12.43;;
19810;SDS011;10065;49.632;8.346;2024-01-30T14:00:02;26.13;;;13.33;;
19810;SDS011;10065;49.632;8.346;2024-01-30T14:02:33;19.50;;;12.20;;
19810;SDS011;10065;49.632;8.346;2024-01-30T14:05:01;22.70;;;12.57;;
19810;SDS011;10065;49.632;8.346;2024-01-30T14:07:31;16.93;;;11.80;;
19810;SDS011;10065;49.632;8.346;2024-01-30T14:10:00;23.97;;;13.63;;
19810;SDS011;10065;49.632;8.346;2024-01-30T14:12:32;18.67;;;12.67;;
19810;SDS011;10065;49.632;8.346;2024-01-30T14:15:00;19.20;;;11.90;;
19810;SDS011;10065;49.632;8.346;2024-01-30T14:17:37;19.63;;;11.50;;
19810;SDS011;10065;49.632;8.346;2024-01-30T14:20:06;19.13;;;11.17;;
19810;SDS011;10065;49.632;8.346;2024-01-30T14:22:35;16.13;;;10.07;;
19810;SDS011;10065;49.632;8.346;2024-01-30T14:25:04;21.63;;;10.87;;
19810;SDS011;10065;49.632;8.346;2024-01-30T14:27:34;17.00;;;9.70;;
19810;SDS011;10065;49.632;8.346;2024-01-30T14:30:03;17.60;;;9.80;;
19810;SDS011;10065;49.632;8.346;2024-01-30T14:32:31;16.43;;;10.80;;
19810;SDS011;10065;49.632;8.346;2024-01-30T14:34:59;18.87;;;11.43;;
19810;SDS011;10065;49.632;8.346;2024-01-30T14:37:27;19.87;;;10.57;;
19810;SDS011;10065;49.632;8.346;2024-01-30T14:39:56;19.43;;;10.63;;
19810;SDS011;10065;49.632;8.346;2024-01-30T14:42:25;16.83;;;10.67;;
19810;SDS011;10065;49.632;8.346;2024-01-30T14:44:55;18.10;;;10.43;;
19810;SDS011;10065;49.632;8.346;2024-01-30T14:47:25;20.53;;;10.83;;
19810;SDS011;10065;49.632;8.346;2024-01-30T14:49:53;18.40;;;11.80;;
19810;SDS011;10065;49.632;8.346;2024-01-30T14:52:22;17.50;;;10.77;;
19810;SDS011;10065;49.632;8.346;2024-01-30T14:54:50;18.17;;;10.90;;
19810;SDS011;10065;49.632;8.346;2024-01-30T14:57:18;22.67;;;11.17;;
19810;SDS011;10065;49.632;8.346;2024-01-30T14:59:46;16.43;;;10.30;;
19810;SDS011;10065;49.632;8.346;2024-01-30T15:02:17;22.20;;;11.43;;
19810;SDS011;10065;49.632;8.346;2024-01-30T15:04:45;15.87;;;10.33;;
19810;SDS011;10065;49.632;8.346;2024-01-30T15:07:13;20.50;;;10.90;;
19810;SDS011;10065;49.632;8.346;2024-01-30T15:09:58;16.10;;;10.03;;
19810;SDS011;10065;49.632;8.346;2024-01-30T15:12:26;14.83;;;9.27;;
19810;SDS011;10065;49.632;8.346;2024-01-30T15:14:54;13.87;;;8.33;;
19810;SDS011;10065;49.632;8.346;2024-01-30T15:17:24;17.60;;;9.53;;
19810;SDS011;10065;49.632;8.346;2024-01-30T15:19:52;17.70;;;9.13;;
19810;SDS011;10065;49.632;8.346;2024-01-30T15:22:20;16.10;;;9.17;;
19810;SDS011;10065;49.632;8.346;2024-01-30T15:24:48;16.20;;;9.77;;
19810;SDS011;10065;49.632;8.346;2024-01-30T15:27:16;18.47;;;10.10;;
19810;SDS011;10065;49.632;8.346;2024-01-30T15:29:46;19.77;;;10.23;;
19810;SDS011;10065;49.632;8.346;2024-01-30T15:32:14;17.27;;;10.10;;
19810;SDS011;10065;49.632;8.346;2024-01-30T15:34:46;19.03;;;10.53;;
19810;SDS011;10065;49.632;8.346;2024-01-30T15:37:14;14.40;;;10.13;;
19810;SDS011;10065;49.632;8.346;2024-01-30T15:39:42;15.20;;;9.80;;
19810;SDS011;10065;49.632;8.346;2024-01-30T15:42:10;14.77;;;10.17;;
19810;SDS011;10065;49.632;8.346;2024-01-30T15:44:38;18.67;;;10.20;;
19810;SDS011;10065;49.632;8.346;2024-01-30T15:47:07;15.77;;;9.37;;
19810;SDS011;10065;49.632;8.346;2024-01-30T15:49:35;16.73;;;10.70;;
19810;SDS011;10065;49.632;8.346;2024-01-30T15:52:05;17.67;;;9.77;;
19810;SDS011;10065;49.632;8.346;2024-01-30T15:54:39;17.80;;;10.43;;
19810;SDS011;10065;49.632;8.346;2024-01-30T15:57:07;18.30;;;9.90;;
19810;SDS011;10065;49.632;8.346;2024-01-30T15:59:35;17.40;;;9.93;;
19810;SDS011;10065;49.632;8.346;2024-01-30T16:02:04;16.67;;;10.63;;
19810;SDS011;10065;49.632;8.346;2024-01-30T16:04:33;17.03;;;10.40;;
19810;SDS011;10065;49.632;8.346;2024-01-30T16:07:01;19.90;;;9.83;;
19810;SDS011;10065;49.632;8.346;2024-01-30T16:09:31;15.70;;;9.57;;
19810;SDS011;10065;49.632;8.346;2024-01-30T16:11:59;15.33;;;8.90;;
19810;SDS011;10065;49.632;8.346;2024-01-30T16:14:28;18.87;;;8.50;;
19810;SDS011;10065;49.632;8.346;2024-01-30T16:16:56;15.33;;;8.77;;
19810;SDS011;10065;49.632;8.346;2024-01-30T16:19:25;14.83;;;8.50;;
19810;SDS011;10065;49.632;8.346;2024-01-30T16:21:53;16.63;;;9.23;;
19810;SDS011;10065;49.632;8.346;2024-01-30T16:24:21;14.43;;;7.67;;
19810;SDS011;10065;49.632;8.346;2024-01-30T16:26:51;16.07;;;9.07;;
19810;SDS011;10065;49.632;8.346;2024-01-30T16:29:18;13.37;;;7.93;;
19810;SDS011;10065;49.632;8.346;2024-01-30T16:31:47;17.63;;;8.70;;
19810;SDS011;10065;49.632;8.346;2024-01-30T16:34:15;14.80;;;9.53;;
19810;SDS011;10065;49.632;8.346;2024-01-30T16:36:58;15.23;;;8.63;;
19810;SDS011;10065;49.632;8.346;2024-01-30T16:39:26;12.83;;;8.37;;
19810;SDS011;10065;49.632;8.346;2024-01-30T16:41:58;16.00;;;8.93;;
19810;SDS011;10065;49.632;8.346;2024-01-30T16:44:26;13.67;;;9.07;;
19810;SDS011;10065;49.632;8.346;2024-01-30T16:46:54;16.53;;;8.90;;
19810;SDS011;10065;49.632;8.346;2024-01-30T16:49:23;12.03;;;8.43;;
19810;SDS011;10065;49.632;8.346;2024-01-30T16:51:53;12.97;;;8.13;;
19810;SDS011;10065;49.632;8.346;2024-01-30T16:54:23;17.60;;;9.07;;
19810;SDS011;10065;49.632;8.346;2024-01-30T16:56:51;17.03;;;8.67;;
19810;SDS011;10065;49.632;8.346;2024-01-30T16:59:21;16.67;;;9.93;;
19810;SDS011;10065;49.632;8.346;2024-01-30T17:01:49;16.73;;;9.50;;
19810;SDS011;10065;49.632;8.346;2024-01-30T17:04:20;14.93;;;9.57;;
19810;SDS011;10065;49.632;8.346;2024-01-30T17:06:48;17.33;;;9.80;;
19810;SDS011;10065;49.632;8.346;2024-01-30T17:09:18;15.43;;;9.43;;
19810;SDS011;10065;49.632;8.346;2024-01-30T17:11:46;16.77;;;9.87;;
19810;SDS011;10065;49.632;8.346;2024-01-30T17:14:15;20.13;;;10.30;;
19810;SDS011;10065;49.632;8.346;2024-01-30T17:16:45;22.83;;;10.00;;
19810;SDS011;10065;49.632;8.346;2024-01-30T17:19:22;16.07;;;9.80;;
19810;SDS011;10065;49.632;8.346;2024-01-30T17:21:50;18.47;;;10.47;;
19810;SDS011;10065;49.632;8.346;2024-01-30T17:24:18;17.93;;;10.63;;
19810;SDS011;10065;49.632;8.346;2024-01-30T17:26:47;17.00;;;10.00;;
19810;SDS011;10065;49.632;8.346;2024-01-30T17:29:16;15.83;;;9.80;;
19810;SDS011;10065;49.632;8.346;2024-01-30T17:31:46;21.80;;;11.27;;
19810;SDS011;10065;49.632;8.346;2024-01-30T17:34:15;16.07;;;10.53;;
19810;SDS011;10065;49.632;8.346;2024-01-30T17:36:43;21.57;;;10.40;;
19810;SDS011;10065;49.632;8.346;2024-01-30T17:39:11;14.93;;;9.63;;
19810;SDS011;10065;49.632;8.346;2024-01-30T17:41:40;14.63;;;9.80;;
19810;SDS011;10065;49.632;8.346;2024-01-30T17:44:08;18.13;;;9.90;;
19810;SDS011;10065;49.632;8.346;2024-01-30T17:46:39;17.37;;;10.60;;
19810;SDS011;10065;49.632;8.346;2024-01-30T17:49:09;17.47;;;9.87;;
19810;SDS011;10065;49.632;8.346;2024-01-30T17:51:38;17.60;;;9.77;;
19810;SDS011;10065;49.632;8.346;2024-01-30T17:54:07;18.13;;;10.23;;
19810;SDS011;10065;49.632;8.346;2024-01-30T17:56:35;19.30;;;10.67;;
19810;SDS011;10065;49.632;8.346;2024-01-30T17:59:03;14.47;;;9.77;;
19810;SDS011;10065;49.632;8.346;2024-01-30T18:01:33;16.60;;;10.17;;
19810;SDS011;10065;49.632;8.346;2024-01-30T18:04:02;17.40;;;9.97;;
19810;SDS011;10065;49.632;8.346;2024-01-30T18:06:31;17.63;;;10.17;;
19810;SDS011;10065;49.632;8.346;2024-01-30T18:09:00;18.60;;;10.37;;
19810;SDS011;10065;49.632;8.346;2024-01-30T18:11:28;18.53;;;11.10;;
19810;SDS011;10065;49.632;8.346;2024-01-30T18:13:56;15.83;;;10.50;;
19810;SDS011;10065;49.632;8.346;2024-01-30T18:16:25;17.70;;;10.53;;
19810;SDS011;10065;49.632;8.346;2024-01-30T18:18:54;17.40;;;11.73;;
19810;SDS011;10065;49.632;8.346;2024-01-30T18:21:23;18.03;;;10.50;;
19810;SDS011;10065;49.632;8.346;2024-01-30T18:23:53;20.50;;;10.57;;
19810;SDS011;10065;49.632;8.346;2024-01-30T18:26:21;25.37;;;10.67;;
19810;SDS011;10065;49.632;8.346;2024-01-30T18:28:52;16.90;;;11.00;;
19810;SDS011;10065;49.632;8.346;2024-01-30T18:31:22;16.53;;;10.83;;
19810;SDS011;10065;49.632;8.346;2024-01-30T18:33:51;16.50;;;11.23;;
19810;SDS011;10065;49.632;8.346;2024-01-30T18:36:22;22.43;;;11.43;;
19810;SDS011;10065;49.632;8.346;2024-01-30T18:38:55;19.20;;;11.40;;
19810;SDS011;10065;49.632;8.346;2024-01-30T18:41:23;20.00;;;11.67;;
19810;SDS011;10065;49.632;8.346;2024-01-30T18:43:51;19.37;;;12.07;;
19810;SDS011;10065;49.632;8.346;2024-01-30T18:46:19;21.53;;;11.70;;
19810;SDS011;10065;49.632;8.346;2024-01-30T18:48:50;20.03;;;12.83;;
19810;SDS011;10065;49.632;8.346;2024-01-30T18:51:18;19.43;;;12.83;;
19810;SDS011;10065;49.632;8.346;2024-01-30T18:53:46;18.87;;;12.40;;
19810;SDS011;10065;49.632;8.346;2024-01-30T18:56:16;16.63;;;11.53;;
19810;SDS011;10065;49.632;8.346;2024-01-30T18:58:46;18.93;;;11.50;;
19810;SDS011;10065;49.632;8.346;2024-01-30T19:01:14;22.43;;;12.60;;
19810;SDS011;10065;49.632;8.346;2024-01-30T19:03:45;18.30;;;11.77;;
19810;SDS011;10065;49.632;8.346;2024-01-30T19:06:16;20.37;;;12.10;;
19810;SDS011;10065;49.632;8.346;2024-01-30T19:08:44;24.53;;;13.50;;
19810;SDS011;10065;49.632;8.346;2024-01-30T19:11:18;19.30;;;12.10;;
19810;SDS011;10065;49.632;8.346;2024-01-30T19:13:46;18.57;;;11.83;;
19810;SDS011;10065;49.632;8.346;2024-01-30T19:16:15;23.03;;;12.70;;
19810;SDS011;10065;49.632;8.346;2024-01-30T19:18:43;22.13;;;11.93;;
19810;SDS011;10065;49.632;8.346;2024-01-30T19:21:12;18.70;;;11.77;;
19810;SDS011;10065;49.632;8.346;2024-01-30T19:23:40;18.33;;;11.83;;
19810;SDS011;10065;49.632;8.346;2024-01-30T19:26:08;19.10;;;12.23;;
19810;SDS011;10065;49.632;8.346;2024-01-30T19:28:38;17.47;;;11.30;;
19810;SDS011;10065;49.632;8.346;2024-01-30T19:31:06;19.63;;;12.23;;
19810;SDS011;10065;49.632;8.346;2024-01-30T19:33:35;21.83;;;12.20;;
19810;SDS011;10065;49.632;8.346;2024-01-30T19:36:04;22.63;;;13.73;;
19810;SDS011;10065;49.632;8.346;2024-01-30T19:38:33;25.13;;;15.37;;
19810;SDS011;10065;49.632;8.346;2024-01-30T19:41:02;24.37;;;14.13;;
19810;SDS011;10065;49.632;8.346;2024-01-30T19:43:32;23.07;;;13.77;;
19810;SDS011;10065;49.632;8.346;2024-01-30T19:46:02;23.27;;;14.37;;
19810;SDS011;10065;49.632;8.346;2024-01-30T19:48:31;25.83;;;14.43;;
19810;SDS011;10065;49.632;8.346;2024-01-30T19:51:00;25.97;;;16.07;;
19810;SDS011;10065;49.632;8.346;2024-01-30T19:53:28;26.40;;;14.90;;
19810;SDS011;10065;49.632;8.346;2024-01-30T19:56:00;29.83;;;15.80;;
19810;SDS011;10065;49.632;8.346;2024-01-30T19:58:30;29.60;;;16.67;;
19810;SDS011;10065;49.632;8.346;2024-01-30T20:00:59;22.97;;;14.93;;
19810;SDS011;10065;49.632;8.346;2024-01-30T20:03:32;25.63;;;14.93;;
19810;SDS011;10065;49.632;8.346;2024-01-30T20:06:01;21.13;;;14.33;;
19810;SDS011;10065;49.632;8.346;2024-01-30T20:08:29;31.13;;;14.33;;
19810;SDS011;10065;49.632;8.346;2024-01-30T20:11:01;21.77;;;14.27;;
19810;SDS011;10065;49.632;8.346;2024-01-30T20:13:30;24.30;;;15.30;;
19810;SDS011;10065;49.632;8.346;2024-01-30T20:15:58;23.93;;;15.00;;
19810;SDS011;10065;49.632;8.346;2024-01-30T20:18:27;24.73;;;14.73;;
19810;SDS011;10065;49.632;8.346;2024-01-30T20:20:58;23.73;;;15.67;;
19810;SDS011;10065;49.632;8.346;2024-01-30T20:23:26;34.37;;;17.37;;
19810;SDS011;10065;49.632;8.346;2024-01-30T20:25:54;23.93;;;15.43;;
19810;SDS011;10065;49.632;8.346;2024-01-30T20:28:24;29.60;;;17.90;;
19810;SDS011;10065;49.632;8.346;2024-01-30T20:30:53;30.40;;;18.70;;
19810;SDS011;10065;49.632;8.346;2024-01-30T20:33:21;30.10;;;16.00;;
19810;SDS011;10065;49.632;8.346;2024-01-30T20:35:51;31.67;;;17.03;;
19810;SDS011;10065;49.632;8.346;2024-01-30T20:38:21;28.97;;;17.53;;
19810;SDS011;10065;49.632;8.346;2024-01-30T20:40:49;30.60;;;18.23;;
19810;SDS011;10065;49.632;8.346;2024-01-30T20:43:17;27.73;;;16.10;;
19810;SDS011;10065;49.632;8.346;2024-01-30T20:45:45;25.93;;;15.83;;
19810;SDS011;10065;49.632;8.346;2024-01-30T20:48:14;24.73;;;14.93;;
19810;SDS011;10065;49.632;8.346;2024-01-30T20:50:44;24.93;;;14.47;;
19810;SDS011;10065;49.632;8.346;2024-01-30T20:53:12;25.60;;;14.83;;
19810;SDS011;10065;49.632;8.346;2024-01-30T20:55:42;21.57;;;13.97;;
19810;SDS011;10065;49.632;8.346;2024-01-30T20:58:10;22.97;;;14.43;;
19810;SDS011;10065;49.632;8.346;2024-01-30T21:00:38;25.30;;;14.17;;
19810;SDS011;10065;49.632;8.346;2024-01-30T21:03:07;26.37;;;15.27;;
19810;SDS011;10065;49.632;8.346;2024-01-30T21:05:37;27.33;;;15.50;;
19810;SDS011;10065;49.632;8.346;2024-01-30T21:08:06;22.57;;;15.13;;
19810;SDS011;10065;49.632;8.346;2024-01-30T21:10:34;27.33;;;16.07;;
19810;SDS011;10065;49.632;8.346;2024-01-30T21:13:04;28.43;;;16.87;;
19810;SDS011;10065;49.632;8.346;2024-01-30T21:15:32;30.10;;;18.00;;
19810;SDS011;10065;49.632;8.346;2024-01-30T21:18:01;26.57;;;16.80;;
19810;SDS011;10065;49.632;8.346;2024-01-30T21:20:32;27.23;;;15.80;;
19810;SDS011;10065;49.632;8.346;2024-01-30T21:23:00;27.00;;;16.20;;
19810;SDS011;10065;49.632;8.346;2024-01-30T21:25:28;28.53;;;16.13;;
19810;SDS011;10065;49.632;8.346;2024-01-30T21:27:56;27.23;;;16.93;;
19810;SDS011;10065;49.632;8.346;2024-01-30T21:30:26;24.87;;;15.17;;
19810;SDS011;10065;49.632;8.346;2024-01-30T21:32:55;23.50;;;14.77;;
19810;SDS011;10065;49.632;8.346;2024-01-30T21:35:23;32.13;;;17.27;;
19810;SDS011;10065;49.632;8.346;2024-01-30T21:37:51;30.60;;;17.73;;
19810;SDS011;10065;49.632;8.346;2024-01-30T21:40:20;28.43;;;15.53;;
19810;SDS011;10065;49.632;8.346;2024-01-30T21:42:48;23.37;;;16.47;;
19810;SDS011;10065;49.632;8.346;2024-01-30T21:45:17;26.47;;;16.57;;
19810;SDS011;10065;49.632;8.346;2024-01-30T21:47:48;27.63;;;16.30;;
19810;SDS011;10065;49.632;8.346;2024-01-30T21:50:16;24.37;;;16.50;;
19810;SDS011;10065;49.632;8.346;2024-01-30T21:52:46;25.53;;;15.50;;
19810;SDS011;10065;49.632;8.346;2024-01-30T21:55:14;25.57;;;15.90;;
19810;SDS011;10065;49.632;8.346;2024-01-30T21:57:43;25.90;;;15.67;;
19810;SDS011;10065;49.632;8.346;2024-01-30T22:00:11;24.27;;;15.17;;
19810;SDS011;10065;49.632;8.346;2024-01-30T22:02:41;27.77;;;16.30;;
19810;SDS011;10065;49.632;8.346;2024-01-30T22:05:10;26.23;;;16.40;;
19810;SDS011;10065;49.632;8.346;2024-01-30T22:07:38;27.20;;;15.07;;
19810;SDS011;10065;49.632;8.346;2024-01-30T22:10:07;25.17;;;14.60;;
19810;SDS011;10065;49.632;8.346;2024-01-30T22:12:36;25.07;;;14.13;;
19810;SDS011;10065;49.632;8.346;2024-01-30T22:15:05;24.30;;;14.97;;
19810;SDS011;10065;49.632;8.346;2024-01-30T22:17:34;25.07;;;15.00;;